createdAt,value
2023-03-19T00:02:06.065Z,11.85
2023-03-19T00:04:38.806Z,11.84
2023-03-19T00:07:05.412Z,11.81
2023-03-19T00:09:31.955Z,11.80
2023-03-19T00:11:58.396Z,11.76
2023-03-19T00:14:24.873Z,11.74
2023-03-19T00:16:54.200Z,11.72
2023-03-19T00:19:20.732Z,11.70
2023-03-19T00:21:47.364Z,11.67
2023-03-19T00:24:14.012Z,11.66
2023-03-19T00:26:40.668Z,11.66
2023-03-19T00:29:07.360Z,11.67
2023-03-19T00:31:34.586Z,11.69
2023-03-19T00:34:01.664Z,11.73
2023-03-19T00:36:28.905Z,11.75
2023-03-19T00:38:57.614Z,11.76
2023-03-19T00:41:24.721Z,11.74
2023-03-19T00:43:55.938Z,11.74
2023-03-19T00:46:23.961Z,11.72
2023-03-19T00:48:53.810Z,11.73
2023-03-19T00:51:20.564Z,11.72
2023-03-19T00:53:47.026Z,11.73
2023-03-19T00:56:15.392Z,11.75
2023-03-19T00:58:43.309Z,11.77
2023-03-19T01:01:12.524Z,11.79
2023-03-19T01:03:39.081Z,11.78
2023-03-19T01:06:06.113Z,11.72
2023-03-19T01:08:32.595Z,11.63
2023-03-19T01:11:25.293Z,11.52
2023-03-19T01:13:51.964Z,11.46
2023-03-19T01:16:18.866Z,11.39
2023-03-19T01:18:45.945Z,11.33
2023-03-19T01:21:12.556Z,11.24
2023-03-19T01:23:45.538Z,11.18
2023-03-19T01:26:13.265Z,11.12
2023-03-19T01:28:39.741Z,11.05
2023-03-19T01:31:08.301Z,10.98
2023-03-19T01:33:50.800Z,10.90
2023-03-19T01:36:26.238Z,10.83
2023-03-19T01:39:00.953Z,10.76
2023-03-19T01:41:27.813Z,10.73
2023-03-19T01:43:58.844Z,10.69
2023-03-19T01:46:37.579Z,10.64
2023-03-19T01:49:15.152Z,10.63
2023-03-19T01:51:47.727Z,10.58
2023-03-19T01:54:46.750Z,10.55
2023-03-19T01:57:36.579Z,10.54
2023-03-19T02:00:26.200Z,10.50
2023-03-19T02:02:59.877Z,10.45
2023-03-19T02:05:53.067Z,10.42
2023-03-19T02:08:23.541Z,10.38
2023-03-19T02:10:51.958Z,10.34
2023-03-19T02:13:18.648Z,10.30
2023-03-19T02:15:45.613Z,10.25
2023-03-19T02:18:12.836Z,10.22
2023-03-19T02:20:42.055Z,10.24
2023-03-19T02:23:22.281Z,10.26
2023-03-19T02:26:11.561Z,10.33
2023-03-19T02:28:42.526Z,10.36
2023-03-19T02:31:11.293Z,10.39
2023-03-19T02:33:38.351Z,10.42
2023-03-19T02:36:09.157Z,10.47
2023-03-19T02:38:36.714Z,10.52
2023-03-19T02:41:08.330Z,10.57
2023-03-19T02:43:38.408Z,10.63
2023-03-19T02:46:09.727Z,10.69
2023-03-19T02:48:37.475Z,10.74
2023-03-19T02:51:04.833Z,10.75
2023-03-19T02:53:31.375Z,10.71
2023-03-19T02:55:57.968Z,10.65
2023-03-19T02:58:24.461Z,10.56
2023-03-19T03:00:52.642Z,10.47
2023-03-19T03:03:20.718Z,10.40
2023-03-19T03:05:47.291Z,10.34
2023-03-19T03:08:13.776Z,10.27
2023-03-19T03:10:40.294Z,10.23
2023-03-19T03:13:07.145Z,10.18
2023-03-19T03:15:34.521Z,10.14
2023-03-19T03:18:01.351Z,10.12
2023-03-19T03:20:27.769Z,10.10
2023-03-19T03:22:54.267Z,10.10
2023-03-19T03:25:21.430Z,10.10
2023-03-19T03:27:48.233Z,10.13
2023-03-19T03:30:16.240Z,10.19
2023-03-19T03:32:43.252Z,10.26
2023-03-19T03:35:10.397Z,10.32
2023-03-19T03:37:37.996Z,10.39
2023-03-19T03:40:08.293Z,10.43
2023-03-19T03:42:37.180Z,10.46
2023-03-19T03:45:05.852Z,10.50
2023-03-19T03:47:32.376Z,10.54
2023-03-19T03:49:59.098Z,10.55
2023-03-19T03:52:25.792Z,10.54
2023-03-19T03:54:52.235Z,10.51
2023-03-19T03:57:18.757Z,10.44
2023-03-19T03:59:45.326Z,10.35
2023-03-19T04:02:12.053Z,10.27
2023-03-19T04:04:38.690Z,10.20
2023-03-19T04:07:05.264Z,10.13
2023-03-19T04:09:38.968Z,10.08
2023-03-19T04:12:05.696Z,10.03
2023-03-19T04:14:32.298Z,9.98
2023-03-19T04:16:59.136Z,9.94
2023-03-19T04:19:25.857Z,9.92
2023-03-19T04:21:52.504Z,9.91
2023-03-19T04:24:19.038Z,9.87
2023-03-19T04:26:48.459Z,9.86
2023-03-19T04:29:15.950Z,9.81
2023-03-19T04:31:42.694Z,9.75
2023-03-19T04:34:09.236Z,9.70
2023-03-19T04:36:35.765Z,9.66
2023-03-19T04:39:02.457Z,9.62
2023-03-19T04:41:29.767Z,9.60
2023-03-19T04:44:19.502Z,9.58
2023-03-19T04:46:47.242Z,9.59
2023-03-19T04:49:18.145Z,9.61
2023-03-19T04:51:45.419Z,9.65
2023-03-19T04:54:12.506Z,9.66
2023-03-19T04:56:39.058Z,9.70
2023-03-19T04:59:06.623Z,9.70
2023-03-19T05:01:33.220Z,9.71
2023-03-19T05:04:07.163Z,9.70
2023-03-19T05:06:36.368Z,9.71
2023-03-19T05:09:03.956Z,9.72
2023-03-19T05:11:31.556Z,9.74
2023-03-19T05:14:15.924Z,9.78
2023-03-19T05:16:58.110Z,9.80
2023-03-19T05:19:27.230Z,9.83
2023-03-19T05:21:54.468Z,9.85
2023-03-19T05:24:25.407Z,9.86
2023-03-19T05:26:53.223Z,9.86
2023-03-19T05:29:41.082Z,9.87
2023-03-19T05:32:19.015Z,9.86
2023-03-19T05:34:46.178Z,9.85
2023-03-19T05:37:13.039Z,9.84
2023-03-19T05:39:40.773Z,9.81
2023-03-19T05:42:09.053Z,9.79
2023-03-19T05:44:35.716Z,9.80
2023-03-19T05:47:13.693Z,9.81
2023-03-19T05:49:45.467Z,9.79
2023-03-19T05:52:12.344Z,9.78
2023-03-19T05:54:38.905Z,9.77
2023-03-19T05:57:23.336Z,9.74
2023-03-19T06:00:17.192Z,9.69
2023-03-19T06:02:47.421Z,9.67
2023-03-19T06:05:17.209Z,9.67
2023-03-19T06:07:43.965Z,9.68
2023-03-19T06:10:18.764Z,9.72
2023-03-19T06:12:47.673Z,9.73
2023-03-19T06:15:37.921Z,9.77
2023-03-19T06:18:27.439Z,9.80
2023-03-19T06:20:54.491Z,9.84
2023-03-19T06:23:20.989Z,9.85
2023-03-19T06:25:47.576Z,9.85
2023-03-19T06:28:14.938Z,9.83
2023-03-19T06:30:43.735Z,9.81
2023-03-19T06:33:32.263Z,9.79
2023-03-19T06:35:59.572Z,9.78
2023-03-19T06:38:26.763Z,9.77
2023-03-19T06:40:53.202Z,9.78
2023-03-19T06:43:19.678Z,9.82
2023-03-19T06:45:47.139Z,9.84
2023-03-19T06:48:13.693Z,9.87
2023-03-19T06:50:40.398Z,9.95
2023-03-19T06:53:07.877Z,10.03
2023-03-19T06:55:35.501Z,10.15
2023-03-19T06:58:01.937Z,10.25
2023-03-19T07:00:28.626Z,10.36
2023-03-19T07:02:55.243Z,10.47
2023-03-19T07:05:21.714Z,10.56
2023-03-19T07:07:48.208Z,10.71
2023-03-19T07:10:14.834Z,10.91
2023-03-19T07:12:41.347Z,11.13
2023-03-19T07:15:08.555Z,11.33
2023-03-19T07:17:35.019Z,11.47
2023-03-19T07:20:05.030Z,11.64
2023-03-19T07:22:33.720Z,11.80
2023-03-19T07:25:01.750Z,11.95
2023-03-19T07:27:28.330Z,12.07
2023-03-19T07:29:55.655Z,12.20
2023-03-19T07:32:23.469Z,12.36
2023-03-19T07:34:50.237Z,12.48
2023-03-19T07:37:16.739Z,12.60
2023-03-19T07:39:43.194Z,12.70
2023-03-19T07:42:09.822Z,12.79
2023-03-19T07:44:39.094Z,12.87
2023-03-19T07:47:08.193Z,12.93
2023-03-19T07:49:39.874Z,13.02
2023-03-19T07:52:06.676Z,13.09
2023-03-19T07:54:33.254Z,13.16
2023-03-19T07:56:59.745Z,13.20
2023-03-19T07:59:26.236Z,13.27
2023-03-19T08:01:52.753Z,13.32
2023-03-19T08:04:19.257Z,13.35
2023-03-19T08:06:45.687Z,13.34
2023-03-19T08:09:12.099Z,13.35
2023-03-19T08:11:38.604Z,13.39
2023-03-19T08:14:05.063Z,13.45
2023-03-19T08:16:32.020Z,13.49
2023-03-19T08:18:58.463Z,13.54
2023-03-19T08:21:24.905Z,13.61
2023-03-19T08:23:53.018Z,13.65
2023-03-19T08:26:19.687Z,13.66
2023-03-19T08:28:46.153Z,13.64
2023-03-19T08:31:14.418Z,13.60
2023-03-19T08:33:41.550Z,13.59
2023-03-19T08:36:11.073Z,13.56
2023-03-19T08:38:37.957Z,13.52
2023-03-19T08:41:06.146Z,13.48
2023-03-19T08:43:34.253Z,13.43
2023-03-19T08:46:01.491Z,13.40
2023-03-19T08:48:28.334Z,13.36
2023-03-19T08:50:56.519Z,13.31
2023-03-19T08:53:24.102Z,13.24
2023-03-19T08:55:55.079Z,13.16
2023-03-19T08:58:21.777Z,13.08
2023-03-19T09:00:50.152Z,13.02
2023-03-19T09:03:17.418Z,12.94
2023-03-19T09:05:44.188Z,12.90
2023-03-19T09:08:11.145Z,12.90
2023-03-19T09:10:38.200Z,12.90
2023-03-19T09:13:05.594Z,12.93
2023-03-19T09:15:32.444Z,13.00
2023-03-19T09:17:59.199Z,13.11
2023-03-19T09:20:25.643Z,13.21
2023-03-19T09:22:52.078Z,13.33
2023-03-19T09:25:18.606Z,13.47
2023-03-19T09:27:45.314Z,13.57
2023-03-19T09:30:12.365Z,13.66
2023-03-19T09:32:40.684Z,13.70
2023-03-19T09:35:07.834Z,13.66
2023-03-19T09:37:34.290Z,13.64
2023-03-19T09:40:00.977Z,13.63
2023-03-19T09:42:56.023Z,13.62
2023-03-19T09:45:23.300Z,13.61
2023-03-19T09:47:56.189Z,13.65
2023-03-19T09:50:25.740Z,13.67
2023-03-19T09:53:24.006Z,13.69
2023-03-19T09:55:52.432Z,13.73
2023-03-19T09:58:22.537Z,13.82
2023-03-19T10:00:51.296Z,13.89
2023-03-19T10:03:31.677Z,13.94
2023-03-19T10:06:20.415Z,13.98
2023-03-19T10:09:03.136Z,14.01
2023-03-19T10:11:57.699Z,14.03
2023-03-19T10:14:27.200Z,14.08
2023-03-19T10:16:58.155Z,14.12
2023-03-19T10:19:41.138Z,14.17
2023-03-19T10:22:15.775Z,14.21
2023-03-19T10:24:45.038Z,14.26
2023-03-19T10:27:19.991Z,14.33
2023-03-19T10:29:46.506Z,14.38
2023-03-19T10:32:38.016Z,14.41
2023-03-19T10:35:20.777Z,14.48
2023-03-19T10:37:49.998Z,14.55
2023-03-19T10:40:30.342Z,14.62
2023-03-19T10:43:20.952Z,14.71
2023-03-19T10:45:49.089Z,14.80
2023-03-19T10:48:17.856Z,14.89
2023-03-19T10:50:56.702Z,15.00
2023-03-19T10:53:33.660Z,15.10
2023-03-19T10:56:02.148Z,15.18
2023-03-19T10:58:31.422Z,15.28
2023-03-19T11:01:06.036Z,15.41
2023-03-19T11:03:34.813Z,15.55
2023-03-19T11:06:19.863Z,15.67
2023-03-19T11:08:52.609Z,15.83
2023-03-19T11:11:37.582Z,15.96
2023-03-19T11:14:31.889Z,16.12
2023-03-19T11:17:05.488Z,16.25
2023-03-19T11:19:41.474Z,16.37
2023-03-19T11:22:08.782Z,16.48
2023-03-19T11:24:48.126Z,16.59
2023-03-19T11:27:14.582Z,16.71
2023-03-19T11:29:44.580Z,16.84
2023-03-19T11:32:21.085Z,16.93
2023-03-19T11:34:56.782Z,17.03
2023-03-19T11:37:29.592Z,17.12
2023-03-19T11:40:11.898Z,17.22
2023-03-19T11:42:47.270Z,17.28
2023-03-19T11:45:24.904Z,17.29
2023-03-19T11:48:19.973Z,17.35
2023-03-19T11:50:58.918Z,17.40
2023-03-19T11:53:34.210Z,17.42
2023-03-19T11:56:29.793Z,17.48
2023-03-19T11:59:21.152Z,17.58
2023-03-19T12:02:06.384Z,17.70
2023-03-19T12:05:11.485Z,17.80
2023-03-19T12:08:07.326Z,17.97
2023-03-19T12:10:53.481Z,18.05
2023-03-19T12:13:57.209Z,18.21
2023-03-19T12:16:48.902Z,18.41
2023-03-19T12:19:42.058Z,18.56
2023-03-19T12:22:16.204Z,18.67
2023-03-19T12:24:42.726Z,18.66
2023-03-19T12:27:28.341Z,18.63
2023-03-19T12:30:04.509Z,18.69
2023-03-19T12:32:40.237Z,18.69
2023-03-19T12:35:34.274Z,18.50
2023-03-19T12:38:18.738Z,18.48
2023-03-19T12:40:52.633Z,18.57
2023-03-19T12:43:30.819Z,18.63
2023-03-19T12:46:16.073Z,18.78
2023-03-19T12:48:51.133Z,18.93
2023-03-19T12:51:23.038Z,19.06
2023-03-19T12:53:56.375Z,19.14
2023-03-19T12:56:52.058Z,19.24
2023-03-19T12:59:27.833Z,19.30
2023-03-19T13:02:03.764Z,19.43
2023-03-19T13:04:33.297Z,19.44
2023-03-19T13:07:08.986Z,19.31
2023-03-19T13:10:03.224Z,19.14
2023-03-19T13:12:33.021Z,19.06
2023-03-19T13:15:19.368Z,18.99
2023-03-19T13:18:14.146Z,18.85
2023-03-19T13:21:23.774Z,18.59
2023-03-19T13:24:17.288Z,18.37
2023-03-19T13:26:45.278Z,18.19
2023-03-19T13:29:26.191Z,18.06
2023-03-19T13:31:59.834Z,18.03
2023-03-19T13:34:29.048Z,17.97
2023-03-19T13:37:13.290Z,17.83
2023-03-19T13:39:42.428Z,17.82
2023-03-19T13:42:11.091Z,17.79
2023-03-19T13:45:22.606Z,17.75
2023-03-19T13:47:58.578Z,17.76
2023-03-19T13:50:27.977Z,17.82
2023-03-19T13:53:33.833Z,17.79
2023-03-19T13:56:26.250Z,17.66
2023-03-19T13:59:16.710Z,17.54
2023-03-19T14:01:44.798Z,17.54
2023-03-19T14:04:29.245Z,17.58
2023-03-19T14:06:58.546Z,17.54
2023-03-19T14:09:43.917Z,17.47
2023-03-19T14:12:19.404Z,17.40
2023-03-19T14:15:13.333Z,17.34
2023-03-19T14:17:51.042Z,17.34
2023-03-19T14:20:28.388Z,17.26
2023-03-19T14:23:08.984Z,17.12
2023-03-19T14:25:52.602Z,16.98
2023-03-19T14:28:24.157Z,16.95
2023-03-19T14:30:50.891Z,16.93
2023-03-19T14:33:29.029Z,16.98
2023-03-19T14:35:56.620Z,17.05
2023-03-19T14:38:36.745Z,17.09
2023-03-19T14:41:04.638Z,17.10
2023-03-19T14:44:02.262Z,17.15
2023-03-19T14:46:50.681Z,17.23
2023-03-19T14:49:54.941Z,17.32
2023-03-19T14:53:04.567Z,17.40
2023-03-19T14:55:37.334Z,17.54
2023-03-19T14:58:04.987Z,17.60
2023-03-19T15:00:47.378Z,17.69
2023-03-19T15:03:21.673Z,17.78
2023-03-19T15:05:51.548Z,17.82
2023-03-19T15:08:23.201Z,17.86
2023-03-19T15:11:08.161Z,17.90
2023-03-19T15:13:59.897Z,17.89
2023-03-19T15:16:38.889Z,17.88
2023-03-19T15:19:10.479Z,17.90
2023-03-19T15:21:38.312Z,17.91
2023-03-19T15:24:07.154Z,17.95
2023-03-19T15:26:36.546Z,18.00
2023-03-19T15:29:04.439Z,18.03
2023-03-19T15:32:03.666Z,18.07
2023-03-19T15:34:31.313Z,18.10
2023-03-19T15:37:14.166Z,18.12
2023-03-19T15:39:46.613Z,18.18
2023-03-19T15:42:16.545Z,18.17
2023-03-19T15:44:50.844Z,18.18
2023-03-19T15:47:21.832Z,18.14
2023-03-19T15:49:59.394Z,18.10
2023-03-19T15:52:26.919Z,18.08
2023-03-19T15:54:55.795Z,18.05
2023-03-19T15:57:24.385Z,18.00
2023-03-19T15:59:53.946Z,17.95
2023-03-19T16:02:31.177Z,17.88
2023-03-19T16:07:55.537Z,17.76
2023-03-19T16:10:33.345Z,17.67
2023-03-19T16:13:05.431Z,17.60
2023-03-19T16:15:44.931Z,17.52
2023-03-19T16:18:17.991Z,17.47
2023-03-19T16:20:48.760Z,17.41
2023-03-19T16:23:18.423Z,17.34
2023-03-19T16:25:46.466Z,17.29
2023-03-19T16:28:19.045Z,17.22
2023-03-19T16:30:48.869Z,17.17
2023-03-19T16:33:15.544Z,17.09
2023-03-19T16:35:44.670Z,17.02
2023-03-19T16:38:17.068Z,16.94
2023-03-19T16:40:45.141Z,16.97
2023-03-19T16:43:33.312Z,16.84
2023-03-19T16:46:12.329Z,16.75
2023-03-19T16:48:39.379Z,16.63
2023-03-19T16:51:12.737Z,16.54
2023-03-19T16:53:39.405Z,16.45
2023-03-19T16:56:06.511Z,16.32
2023-03-19T16:58:36.013Z,16.23
2023-03-19T17:01:15.922Z,16.12
2023-03-19T17:03:42.740Z,16.00
2023-03-19T17:06:12.085Z,15.89
2023-03-19T17:08:38.626Z,15.76
2023-03-19T17:11:05.892Z,15.65
2023-03-19T17:13:34.978Z,15.54
2023-03-19T17:16:04.563Z,15.46
2023-03-19T17:18:41.790Z,15.38
2023-03-19T17:21:10.618Z,15.29
2023-03-19T17:23:38.078Z,15.20
2023-03-19T17:26:31.474Z,15.08
2023-03-19T17:28:58.305Z,15.02
2023-03-19T17:31:29.342Z,14.95
2023-03-19T17:34:03.315Z,14.91
2023-03-19T17:36:30.685Z,14.83
2023-03-19T17:38:57.232Z,14.76
2023-03-19T17:41:24.017Z,14.69
2023-03-19T17:43:50.650Z,14.62
2023-03-19T17:46:23.581Z,14.57
2023-03-19T17:48:51.378Z,14.53
2023-03-19T17:51:18.918Z,14.51
2023-03-19T17:53:51.880Z,14.51
2023-03-19T17:56:20.982Z,14.53
2023-03-19T17:58:50.287Z,14.57
2023-03-19T18:01:20.645Z,14.58
2023-03-19T18:03:51.990Z,14.62
2023-03-19T18:06:21.318Z,14.63
2023-03-19T18:08:48.631Z,14.64
2023-03-19T18:11:15.235Z,14.64
2023-03-19T18:13:42.261Z,14.65
2023-03-19T18:16:21.510Z,14.64
2023-03-19T18:18:50.355Z,14.62
2023-03-19T18:21:17.540Z,14.57
2023-03-19T18:23:45.088Z,14.52
2023-03-19T18:26:11.899Z,14.46
2023-03-19T18:28:39.155Z,14.39
2023-03-19T18:31:15.218Z,14.36
2023-03-19T18:33:46.153Z,14.30
2023-03-19T18:36:18.319Z,14.24
2023-03-19T18:38:44.822Z,14.15
2023-03-19T18:41:17.783Z,14.06
2023-03-19T18:43:44.559Z,14.02
2023-03-19T18:46:19.983Z,13.96
2023-03-19T18:48:46.996Z,13.84
2023-03-19T18:51:13.523Z,13.72
2023-03-19T18:53:40.126Z,13.65
2023-03-19T18:56:20.316Z,13.61
2023-03-19T18:58:47.572Z,13.59
2023-03-19T19:01:16.479Z,13.57
2023-03-19T19:03:45.597Z,13.54
2023-03-19T19:06:40.217Z,13.50
2023-03-19T19:09:12.831Z,13.48
2023-03-19T19:11:41.649Z,13.45
2023-03-19T19:14:16.301Z,13.41
2023-03-19T19:16:42.773Z,13.38
2023-03-19T19:19:18.459Z,13.35
2023-03-19T19:21:46.208Z,13.31
2023-03-19T19:24:14.896Z,13.26
2023-03-19T19:26:46.565Z,13.19
2023-03-19T19:29:23.653Z,13.11
2023-03-19T19:31:50.745Z,13.07
2023-03-19T19:34:17.537Z,13.02
2023-03-19T19:36:44.033Z,12.97
2023-03-19T19:39:10.859Z,12.91
2023-03-19T19:41:38.397Z,12.88
2023-03-19T19:44:05.786Z,12.89
2023-03-19T19:46:32.952Z,12.89
2023-03-19T19:49:00.812Z,12.90
2023-03-19T19:51:29.241Z,12.90
2023-03-19T19:53:55.919Z,12.92
2023-03-19T19:56:25.641Z,12.92
2023-03-19T19:58:54.172Z,12.92
2023-03-19T20:01:23.997Z,12.94
2023-03-19T20:03:52.068Z,12.94
2023-03-19T20:06:19.360Z,12.95
2023-03-19T20:08:48.230Z,12.94
2023-03-19T20:11:23.662Z,12.93
2023-03-19T20:13:54.480Z,12.92
2023-03-19T20:16:24.325Z,12.93
2023-03-19T20:18:53.708Z,12.92
2023-03-19T20:21:20.816Z,12.91
2023-03-19T20:23:47.723Z,12.89
2023-03-19T20:26:17.099Z,12.88
2023-03-19T20:28:44.329Z,12.88
2023-03-19T20:31:26.656Z,12.87
2023-03-19T20:33:53.279Z,12.87
2023-03-19T20:36:19.698Z,12.86
2023-03-19T20:38:46.574Z,12.86
2023-03-19T20:41:22.416Z,12.85
2023-03-19T20:43:50.467Z,12.83
2023-03-19T20:46:20.231Z,12.79
2023-03-19T20:48:48.004Z,12.74
2023-03-19T20:51:21.483Z,12.74
2023-03-19T20:53:49.783Z,12.72
2023-03-19T20:56:18.719Z,12.67
2023-03-19T20:58:45.798Z,12.67
2023-03-19T21:01:14.236Z,12.65
2023-03-19T21:03:41.636Z,12.65
2023-03-19T21:06:17.463Z,12.64
2023-03-19T21:08:47.709Z,12.65
2023-03-19T21:11:17.758Z,12.65
2023-03-19T21:13:51.942Z,12.64
2023-03-19T21:16:19.886Z,12.64
2023-03-19T21:18:47.342Z,12.63
2023-03-19T21:21:15.257Z,12.62
2023-03-19T21:23:56.984Z,12.63
2023-03-19T21:26:24.545Z,12.62
2023-03-19T21:29:00.466Z,12.59
2023-03-19T21:31:27.455Z,12.58
2023-03-19T21:33:55.364Z,12.58
2023-03-19T21:36:23.718Z,12.58
2023-03-19T21:38:52.455Z,12.56
2023-03-19T21:41:26.355Z,12.53
2023-03-19T21:43:56.140Z,12.51
2023-03-19T21:46:26.569Z,12.52
2023-03-19T21:48:54.984Z,12.52
2023-03-19T21:51:22.698Z,12.51
2023-03-19T21:53:49.402Z,12.53
2023-03-19T21:56:22.547Z,12.52
2023-03-19T21:58:51.456Z,12.54
2023-03-19T22:01:21.750Z,12.53
2023-03-19T22:03:48.589Z,12.53
2023-03-19T22:06:17.113Z,12.53
2023-03-19T22:08:48.183Z,12.52
2023-03-19T22:11:19.111Z,12.52
2023-03-19T22:13:46.223Z,12.51
2023-03-19T22:16:22.997Z,12.51
2023-03-19T22:18:51.081Z,12.51
2023-03-19T22:21:20.786Z,12.50
2023-03-19T22:23:48.040Z,12.48
2023-03-19T22:26:34.648Z,12.46
2023-03-19T22:29:04.869Z,12.43
2023-03-19T22:31:32.340Z,12.41
2023-03-19T22:33:58.920Z,12.39
2023-03-19T22:36:25.363Z,12.36
2023-03-19T22:38:52.007Z,12.35
2023-03-19T22:41:26.599Z,12.34
2023-03-19T22:43:53.732Z,12.31
2023-03-19T22:46:20.990Z,12.30
2023-03-19T22:48:52.661Z,12.27
2023-03-19T22:51:24.507Z,12.25
2023-03-19T22:53:51.811Z,12.26
2023-03-19T22:56:19.453Z,12.25
2023-03-19T22:58:49.275Z,12.23
2023-03-19T23:01:20.496Z,12.21
2023-03-19T23:03:48.102Z,12.20
2023-03-19T23:06:29.340Z,12.18
2023-03-19T23:08:57.367Z,12.19
2023-03-19T23:11:24.496Z,12.17
2023-03-19T23:13:51.229Z,12.17
2023-03-19T23:16:23.477Z,12.17
2023-03-19T23:18:51.096Z,12.17
2023-03-19T23:21:19.589Z,12.16
2023-03-19T23:23:46.502Z,12.14
2023-03-19T23:26:26.641Z,12.14
2023-03-19T23:28:54.166Z,12.11
2023-03-19T23:31:20.702Z,12.09
2023-03-19T23:33:47.191Z,12.08
2023-03-19T23:36:13.783Z,12.07
2023-03-19T23:38:40.932Z,12.05
2023-03-19T23:41:07.666Z,12.02
2023-03-19T23:43:34.572Z,11.99
2023-03-19T23:46:01.090Z,11.96
2023-03-19T23:48:36.947Z,11.89
2023-03-19T23:51:03.774Z,11.84
2023-03-19T23:53:30.832Z,11.76
2023-03-19T23:56:00.531Z,11.71
2023-03-19T23:58:42.916Z,11.68
